sensor_id;sensor_type;location;lat;lon;timestamp;temperature;humidity
16767;DHT22;8501;49.926;8.404;2023-03-14T00:00:58;10.80;99.90
16767;DHT22;8501;49.926;8.404;2023-03-14T00:03:24;10.80;99.90
16767;DHT22;8501;49.926;8.404;2023-03-14T00:05:49;10.90;99.90
16767;DHT22;8501;49.926;8.404;2023-03-14T00:08:15;10.90;99.90
16767;DHT22;8501;49.926;8.404;2023-03-14T00:10:41;10.90;99.90
16767;DHT22;8501;49.926;8.404;2023-03-14T00:13:07;10.80;99.90
16767;DHT22;8501;49.926;8.404;2023-03-14T00:15:35;10.80;99.90
16767;DHT22;8501;49.926;8.404;2023-03-14T00:18:01;10.80;99.90
16767;DHT22;8501;49.926;8.404;2023-03-14T00:20:27;10.80;99.90
16767;DHT22;8501;49.926;8.404;2023-03-14T00:22:52;10.80;99.90
16767;DHT22;8501;49.926;8.404;2023-03-14T00:25:18;10.90;99.90
16767;DHT22;8501;49.926;8.404;2023-03-14T00:27:43;10.90;99.90
16767;DHT22;8501;49.926;8.404;2023-03-14T00:30:09;10.80;99.90
16767;DHT22;8501;49.926;8.404;2023-03-14T00:32:36;10.80;99.90
16767;DHT22;8501;49.926;8.404;2023-03-14T00:35:02;10.90;99.90
16767;DHT22;8501;49.926;8.404;2023-03-14T00:37:28;10.90;99.90
16767;DHT22;8501;49.926;8.404;2023-03-14T00:39:54;10.90;99.90
16767;DHT22;8501;49.926;8.404;2023-03-14T00:42:19;10.90;99.90
16767;DHT22;8501;49.926;8.404;2023-03-14T00:44:45;10.90;99.90
16767;DHT22;8501;49.926;8.404;2023-03-14T00:47:10;11.00;99.90
16767;DHT22;8501;49.926;8.404;2023-03-14T00:49:36;11.00;99.90
16767;DHT22;8501;49.926;8.404;2023-03-14T00:52:01;11.00;99.90
16767;DHT22;8501;49.926;8.404;2023-03-14T00:54:27;10.90;99.90
16767;DHT22;8501;49.926;8.404;2023-03-14T00:56:52;10.90;99.90
16767;DHT22;8501;49.926;8.404;2023-03-14T00:59:18;10.90;99.90
16767;DHT22;8501;49.926;8.404;2023-03-14T01:01:44;10.90;99.90
16767;DHT22;8501;49.926;8.404;2023-03-14T01:04:10;10.90;99.90
16767;DHT22;8501;49.926;8.404;2023-03-14T01:06:35;10.90;99.90
16767;DHT22;8501;49.926;8.404;2023-03-14T01:09:01;10.90;99.90
16767;DHT22;8501;49.926;8.404;2023-03-14T01:11:36;10.90;99.90
16767;DHT22;8501;49.926;8.404;2023-03-14T01:14:02;10.90;99.90
16767;DHT22;8501;49.926;8.404;2023-03-14T01:16:29;10.90;99.90
16767;DHT22;8501;49.926;8.404;2023-03-14T01:18:55;10.90;99.90
16767;DHT22;8501;49.926;8.404;2023-03-14T01:21:26;10.90;99.90
16767;DHT22;8501;49.926;8.404;2023-03-14T01:23:54;10.90;99.90
16767;DHT22;8501;49.926;8.404;2023-03-14T01:26:22;10.90;99.90
16767;DHT22;8501;49.926;8.404;2023-03-14T01:28:49;10.90;99.90
16767;DHT22;8501;49.926;8.404;2023-03-14T01:31:15;10.90;99.90
16767;DHT22;8501;49.926;8.404;2023-03-14T01:33:41;11.00;99.90
16767;DHT22;8501;49.926;8.404;2023-03-14T01:36:08;11.00;99.90
16767;DHT22;8501;49.926;8.404;2023-03-14T01:38:35;11.00;99.90
16767;DHT22;8501;49.926;8.404;2023-03-14T01:41:02;11.00;99.90
16767;DHT22;8501;49.926;8.404;2023-03-14T01:43:28;11.00;99.90
16767;DHT22;8501;49.926;8.404;2023-03-14T01:46:16;10.90;99.90
16767;DHT22;8501;49.926;8.404;2023-03-14T01:57:33;11.00;99.90
16767;DHT22;8501;49.926;8.404;2023-03-14T02:00:06;11.00;99.90
16767;DHT22;8501;49.926;8.404;2023-03-14T02:02:38;11.00;99.90
16767;DHT22;8501;49.926;8.404;2023-03-14T02:05:05;10.90;99.90
16767;DHT22;8501;49.926;8.404;2023-03-14T02:07:47;10.90;99.90
16767;DHT22;8501;49.926;8.404;2023-03-14T02:10:14;10.90;99.90
16767;DHT22;8501;49.926;8.404;2023-03-14T02:12:40;10.90;99.90
16767;DHT22;8501;49.926;8.404;2023-03-14T02:15:06;10.90;99.90
16767;DHT22;8501;49.926;8.404;2023-03-14T02:17:32;10.90;99.90
16767;DHT22;8501;49.926;8.404;2023-03-14T02:22:35;10.90;99.90
16767;DHT22;8501;49.926;8.404;2023-03-14T02:25:41;10.90;99.90
16767;DHT22;8501;49.926;8.404;2023-03-14T02:28:09;10.90;99.90
16767;DHT22;8501;49.926;8.404;2023-03-14T02:30:34;10.90;99.90
16767;DHT22;8501;49.926;8.404;2023-03-14T02:33:20;10.90;99.90
16767;DHT22;8501;49.926;8.404;2023-03-14T02:35:55;10.80;99.90
16767;DHT22;8501;49.926;8.404;2023-03-14T02:38:34;10.90;99.90
16767;DHT22;8501;49.926;8.404;2023-03-14T02:41:02;10.80;99.90
16767;DHT22;8501;49.926;8.404;2023-03-14T02:43:27;10.80;99.90
16767;DHT22;8501;49.926;8.404;2023-03-14T02:45:54;10.90;99.90
16767;DHT22;8501;49.926;8.404;2023-03-14T02:48:30;10.80;99.90
16767;DHT22;8501;49.926;8.404;2023-03-14T02:50:59;10.80;99.90
16767;DHT22;8501;49.926;8.404;2023-03-14T02:53:28;10.80;99.90
16767;DHT22;8501;49.926;8.404;2023-03-14T02:55:54;10.80;99.90
16767;DHT22;8501;49.926;8.404;2023-03-14T02:58:20;10.80;99.90
16767;DHT22;8501;49.926;8.404;2023-03-14T03:00:45;10.80;99.90
16767;DHT22;8501;49.926;8.404;2023-03-14T03:03:11;10.80;99.90
16767;DHT22;8501;49.926;8.404;2023-03-14T03:05:37;10.80;99.90
16767;DHT22;8501;49.926;8.404;2023-03-14T03:08:03;10.80;99.90
16767;DHT22;8501;49.926;8.404;2023-03-14T03:10:29;10.70;99.90
16767;DHT22;8501;49.926;8.404;2023-03-14T03:12:55;10.80;99.90
16767;DHT22;8501;49.926;8.404;2023-03-14T03:15:21;10.70;99.90
16767;DHT22;8501;49.926;8.404;2023-03-14T03:17:47;10.70;99.90
16767;DHT22;8501;49.926;8.404;2023-03-14T03:20:12;10.70;99.90
16767;DHT22;8501;49.926;8.404;2023-03-14T03:22:38;10.70;99.90
16767;DHT22;8501;49.926;8.404;2023-03-14T03:25:05;10.70;99.90
16767;DHT22;8501;49.926;8.404;2023-03-14T03:27:32;10.70;99.90
16767;DHT22;8501;49.926;8.404;2023-03-14T03:29:58;10.70;99.90
16767;DHT22;8501;49.926;8.404;2023-03-14T03:32:24;10.60;99.90
16767;DHT22;8501;49.926;8.404;2023-03-14T03:34:50;10.60;99.90
16767;DHT22;8501;49.926;8.404;2023-03-14T03:37:16;10.70;99.90
16767;DHT22;8501;49.926;8.404;2023-03-14T03:39:41;10.60;99.90
16767;DHT22;8501;49.926;8.404;2023-03-14T03:42:07;10.70;99.90
16767;DHT22;8501;49.926;8.404;2023-03-14T03:44:32;10.60;99.90
16767;DHT22;8501;49.926;8.404;2023-03-14T03:46:58;10.60;99.90
16767;DHT22;8501;49.926;8.404;2023-03-14T03:49:24;10.70;99.90
16767;DHT22;8501;49.926;8.404;2023-03-14T03:51:49;10.70;99.90
16767;DHT22;8501;49.926;8.404;2023-03-14T03:54:15;10.70;99.90
16767;DHT22;8501;49.926;8.404;2023-03-14T03:56:40;10.70;99.90
16767;DHT22;8501;49.926;8.404;2023-03-14T03:59:06;10.70;99.90
16767;DHT22;8501;49.926;8.404;2023-03-14T04:01:31;10.70;99.90
16767;DHT22;8501;49.926;8.404;2023-03-14T04:03:57;10.70;99.90
16767;DHT22;8501;49.926;8.404;2023-03-14T04:06:22;10.60;99.90
16767;DHT22;8501;49.926;8.404;2023-03-14T04:08:48;10.60;99.90
16767;DHT22;8501;49.926;8.404;2023-03-14T04:11:14;10.60;99.90
16767;DHT22;8501;49.926;8.404;2023-03-14T04:13:39;10.70;99.90
16767;DHT22;8501;49.926;8.404;2023-03-14T04:16:14;10.60;99.90
16767;DHT22;8501;49.926;8.404;2023-03-14T04:18:40;10.60;99.90
16767;DHT22;8501;49.926;8.404;2023-03-14T04:21:06;10.70;99.90
16767;DHT22;8501;49.926;8.404;2023-03-14T04:23:31;10.60;99.90
16767;DHT22;8501;49.926;8.404;2023-03-14T04:25:57;10.60;99.90
16767;DHT22;8501;49.926;8.404;2023-03-14T04:28:22;10.60;99.90
16767;DHT22;8501;49.926;8.404;2023-03-14T04:30:48;10.60;99.90
16767;DHT22;8501;49.926;8.404;2023-03-14T04:33:13;10.60;99.90
16767;DHT22;8501;49.926;8.404;2023-03-14T04:35:45;10.60;99.90
16767;DHT22;8501;49.926;8.404;2023-03-14T04:38:12;10.60;99.90
16767;DHT22;8501;49.926;8.404;2023-03-14T04:40:39;10.60;99.90
16767;DHT22;8501;49.926;8.404;2023-03-14T04:43:05;10.60;99.90
16767;DHT22;8501;49.926;8.404;2023-03-14T04:45:31;10.70;99.90
16767;DHT22;8501;49.926;8.404;2023-03-14T04:48:13;10.60;99.90
16767;DHT22;8501;49.926;8.404;2023-03-14T04:50:39;10.60;99.90
16767;DHT22;8501;49.926;8.404;2023-03-14T04:53:05;10.60;99.90
16767;DHT22;8501;49.926;8.404;2023-03-14T04:55:32;10.60;99.90
16767;DHT22;8501;49.926;8.404;2023-03-14T04:57:58;10.60;99.90
16767;DHT22;8501;49.926;8.404;2023-03-14T05:00:23;10.60;99.90
16767;DHT22;8501;49.926;8.404;2023-03-14T05:02:49;10.60;99.90
16767;DHT22;8501;49.926;8.404;2023-03-14T05:05:15;10.60;99.90
16767;DHT22;8501;49.926;8.404;2023-03-14T05:07:40;10.50;99.90
16767;DHT22;8501;49.926;8.404;2023-03-14T05:10:06;10.50;99.90
16767;DHT22;8501;49.926;8.404;2023-03-14T05:12:31;10.50;99.90
16767;DHT22;8501;49.926;8.404;2023-03-14T05:14:57;10.50;99.90
16767;DHT22;8501;49.926;8.404;2023-03-14T05:17:22;10.50;99.90
16767;DHT22;8501;49.926;8.404;2023-03-14T05:19:48;10.50;99.90
16767;DHT22;8501;49.926;8.404;2023-03-14T05:22:13;10.50;99.90
16767;DHT22;8501;49.926;8.404;2023-03-14T05:24:39;10.50;99.90
16767;DHT22;8501;49.926;8.404;2023-03-14T05:27:05;10.50;99.90
16767;DHT22;8501;49.926;8.404;2023-03-14T05:29:31;10.60;99.90
16767;DHT22;8501;49.926;8.404;2023-03-14T05:31:56;10.60;99.90
16767;DHT22;8501;49.926;8.404;2023-03-14T05:34:22;10.60;99.90
16767;DHT22;8501;49.926;8.404;2023-03-14T05:36:47;10.60;99.90
16767;DHT22;8501;49.926;8.404;2023-03-14T05:39:13;10.60;99.90
16767;DHT22;8501;49.926;8.404;2023-03-14T05:41:38;10.60;99.90
16767;DHT22;8501;49.926;8.404;2023-03-14T05:44:04;10.60;99.90
16767;DHT22;8501;49.926;8.404;2023-03-14T05:46:30;10.60;99.90
16767;DHT22;8501;49.926;8.404;2023-03-14T05:48:59;10.60;99.90
16767;DHT22;8501;49.926;8.404;2023-03-14T05:51:25;10.60;99.90
16767;DHT22;8501;49.926;8.404;2023-03-14T05:53:50;10.50;99.90
16767;DHT22;8501;49.926;8.404;2023-03-14T05:56:16;10.60;99.90
16767;DHT22;8501;49.926;8.404;2023-03-14T05:58:41;10.60;99.90
16767;DHT22;8501;49.926;8.404;2023-03-14T06:01:07;10.60;99.90
16767;DHT22;8501;49.926;8.404;2023-03-14T06:03:33;10.60;99.90
16767;DHT22;8501;49.926;8.404;2023-03-14T06:05:59;10.60;99.90
16767;DHT22;8501;49.926;8.404;2023-03-14T06:08:24;10.60;99.90
16767;DHT22;8501;49.926;8.404;2023-03-14T06:10:51;10.60;99.90
16767;DHT22;8501;49.926;8.404;2023-03-14T06:13:16;10.50;99.90
16767;DHT22;8501;49.926;8.404;2023-03-14T06:15:42;10.50;99.90
16767;DHT22;8501;49.926;8.404;2023-03-14T06:18:08;10.50;99.90
16767;DHT22;8501;49.926;8.404;2023-03-14T06:20:36;10.50;99.90
16767;DHT22;8501;49.926;8.404;2023-03-14T06:23:01;10.50;99.90
16767;DHT22;8501;49.926;8.404;2023-03-14T06:25:27;10.50;99.90
16767;DHT22;8501;49.926;8.404;2023-03-14T06:27:53;10.50;99.90
16767;DHT22;8501;49.926;8.404;2023-03-14T06:30:18;10.50;99.90
16767;DHT22;8501;49.926;8.404;2023-03-14T06:32:44;10.50;99.90
16767;DHT22;8501;49.926;8.404;2023-03-14T06:35:09;10.50;99.90
16767;DHT22;8501;49.926;8.404;2023-03-14T06:37:35;10.60;99.90
16767;DHT22;8501;49.926;8.404;2023-03-14T06:40:00;10.60;99.90
16767;DHT22;8501;49.926;8.404;2023-03-14T06:42:26;10.60;99.90
16767;DHT22;8501;49.926;8.404;2023-03-14T06:44:51;10.60;99.90
16767;DHT22;8501;49.926;8.404;2023-03-14T06:47:17;10.60;99.90
16767;DHT22;8501;49.926;8.404;2023-03-14T06:49:42;10.60;99.90
16767;DHT22;8501;49.926;8.404;2023-03-14T06:52:08;10.60;99.90
16767;DHT22;8501;49.926;8.404;2023-03-14T06:54:33;10.60;99.90
16767;DHT22;8501;49.926;8.404;2023-03-14T06:56:59;10.60;99.90
16767;DHT22;8501;49.926;8.404;2023-03-14T06:59:25;10.60;99.90
16767;DHT22;8501;49.926;8.404;2023-03-14T07:01:50;10.70;99.90
16767;DHT22;8501;49.926;8.404;2023-03-14T07:04:16;10.70;99.90
16767;DHT22;8501;49.926;8.404;2023-03-14T07:06:42;10.70;99.90
16767;DHT22;8501;49.926;8.404;2023-03-14T07:09:10;10.70;99.90
16767;DHT22;8501;49.926;8.404;2023-03-14T07:11:36;10.70;99.90
16767;DHT22;8501;49.926;8.404;2023-03-14T07:14:01;10.70;99.90
16767;DHT22;8501;49.926;8.404;2023-03-14T07:16:27;10.70;99.90
16767;DHT22;8501;49.926;8.404;2023-03-14T07:18:54;10.70;99.90
16767;DHT22;8501;49.926;8.404;2023-03-14T07:21:19;10.70;99.90
16767;DHT22;8501;49.926;8.404;2023-03-14T07:23:45;10.70;99.90
16767;DHT22;8501;49.926;8.404;2023-03-14T07:26:11;10.70;99.90
16767;DHT22;8501;49.926;8.404;2023-03-14T07:28:36;10.70;99.90
16767;DHT22;8501;49.926;8.404;2023-03-14T07:31:02;10.70;99.90
16767;DHT22;8501;49.926;8.404;2023-03-14T07:33:27;10.70;99.90
16767;DHT22;8501;49.926;8.404;2023-03-14T07:35:53;10.80;99.90
16767;DHT22;8501;49.926;8.404;2023-03-14T07:38:19;10.70;99.90
16767;DHT22;8501;49.926;8.404;2023-03-14T07:40:44;10.70;99.90
16767;DHT22;8501;49.926;8.404;2023-03-14T07:43:10;10.70;99.90
16767;DHT22;8501;49.926;8.404;2023-03-14T07:45:35;10.80;99.90
16767;DHT22;8501;49.926;8.404;2023-03-14T07:48:07;10.80;99.90
16767;DHT22;8501;49.926;8.404;2023-03-14T07:50:32;10.70;99.90
16767;DHT22;8501;49.926;8.404;2023-03-14T07:52:58;10.80;99.90
16767;DHT22;8501;49.926;8.404;2023-03-14T07:55:23;10.80;99.90
16767;DHT22;8501;49.926;8.404;2023-03-14T07:57:49;10.80;99.90
16767;DHT22;8501;49.926;8.404;2023-03-14T08:00:15;10.80;99.90
16767;DHT22;8501;49.926;8.404;2023-03-14T08:02:40;10.80;99.90
16767;DHT22;8501;49.926;8.404;2023-03-14T08:05:06;10.80;99.90
16767;DHT22;8501;49.926;8.404;2023-03-14T08:07:32;10.80;99.90
16767;DHT22;8501;49.926;8.404;2023-03-14T08:09:57;10.80;99.90
16767;DHT22;8501;49.926;8.404;2023-03-14T08:12:23;10.80;99.90
16767;DHT22;8501;49.926;8.404;2023-03-14T08:14:48;10.90;99.90
16767;DHT22;8501;49.926;8.404;2023-03-14T08:17:14;10.90;99.90
16767;DHT22;8501;49.926;8.404;2023-03-14T08:19:41;10.80;99.90
16767;DHT22;8501;49.926;8.404;2023-03-14T08:22:06;10.90;99.90
16767;DHT22;8501;49.926;8.404;2023-03-14T08:24:32;10.90;99.90
16767;DHT22;8501;49.926;8.404;2023-03-14T08:26:58;10.90;99.90
16767;DHT22;8501;49.926;8.404;2023-03-14T08:29:23;10.90;99.90
16767;DHT22;8501;49.926;8.404;2023-03-14T08:31:49;11.00;99.90
16767;DHT22;8501;49.926;8.404;2023-03-14T08:34:15;11.00;99.90
16767;DHT22;8501;49.926;8.404;2023-03-14T08:36:40;11.00;99.90
16767;DHT22;8501;49.926;8.404;2023-03-14T08:39:06;11.10;99.90
16767;DHT22;8501;49.926;8.404;2023-03-14T08:41:33;11.10;99.90
16767;DHT22;8501;49.926;8.404;2023-03-14T08:44:08;11.10;99.90
16767;DHT22;8501;49.926;8.404;2023-03-14T08:46:34;11.20;99.90
16767;DHT22;8501;49.926;8.404;2023-03-14T08:49:00;11.20;99.90
16767;DHT22;8501;49.926;8.404;2023-03-14T08:51:25;11.30;99.90
16767;DHT22;8501;49.926;8.404;2023-03-14T08:53:51;11.30;99.90
16767;DHT22;8501;49.926;8.404;2023-03-14T08:56:16;11.40;99.90
16767;DHT22;8501;49.926;8.404;2023-03-14T08:58:42;11.40;99.90
16767;DHT22;8501;49.926;8.404;2023-03-14T09:01:10;11.40;99.90
16767;DHT22;8501;49.926;8.404;2023-03-14T09:03:35;11.40;99.90
16767;DHT22;8501;49.926;8.404;2023-03-14T09:06:06;11.40;99.90
16767;DHT22;8501;49.926;8.404;2023-03-14T09:08:32;11.50;99.90
16767;DHT22;8501;49.926;8.404;2023-03-14T09:10:59;11.50;99.90
16767;DHT22;8501;49.926;8.404;2023-03-14T09:13:24;11.50;99.90
16767;DHT22;8501;49.926;8.404;2023-03-14T09:15:51;11.40;99.90
16767;DHT22;8501;49.926;8.404;2023-03-14T09:18:17;11.40;99.90
16767;DHT22;8501;49.926;8.404;2023-03-14T09:20:42;11.40;99.90
16767;DHT22;8501;49.926;8.404;2023-03-14T09:23:08;11.50;99.90
16767;DHT22;8501;49.926;8.404;2023-03-14T09:25:33;11.40;99.90
16767;DHT22;8501;49.926;8.404;2023-03-14T09:27:59;11.40;99.90
16767;DHT22;8501;49.926;8.404;2023-03-14T09:30:24;11.50;99.90
16767;DHT22;8501;49.926;8.404;2023-03-14T09:32:50;11.40;99.90
16767;DHT22;8501;49.926;8.404;2023-03-14T09:35:15;11.40;99.90
16767;DHT22;8501;49.926;8.404;2023-03-14T09:37:41;11.40;99.90
16767;DHT22;8501;49.926;8.404;2023-03-14T09:40:11;11.40;99.90
16767;DHT22;8501;49.926;8.404;2023-03-14T09:42:37;11.40;99.90
16767;DHT22;8501;49.926;8.404;2023-03-14T09:45:33;11.40;99.90
16767;DHT22;8501;49.926;8.404;2023-03-14T09:47:57;11.40;99.90
16767;DHT22;8501;49.926;8.404;2023-03-14T09:50:23;11.40;99.90
16767;DHT22;8501;49.926;8.404;2023-03-14T09:53:07;11.40;99.90
16767;DHT22;8501;49.926;8.404;2023-03-14T09:55:35;11.40;99.90
16767;DHT22;8501;49.926;8.404;2023-03-14T09:58:05;11.40;99.90
16767;DHT22;8501;49.926;8.404;2023-03-14T10:00:35;11.40;99.90
16767;DHT22;8501;49.926;8.404;2023-03-14T10:05:40;11.50;99.90
16767;DHT22;8501;49.926;8.404;2023-03-14T10:08:08;11.40;99.90
16767;DHT22;8501;49.926;8.404;2023-03-14T10:10:34;11.50;99.90
16767;DHT22;8501;49.926;8.404;2023-03-14T10:15:35;11.50;99.90
16767;DHT22;8501;49.926;8.404;2023-03-14T10:18:03;11.40;99.90
16767;DHT22;8501;49.926;8.404;2023-03-14T10:20:36;11.40;99.90
16767;DHT22;8501;49.926;8.404;2023-03-14T10:25:41;11.50;99.90
16767;DHT22;8501;49.926;8.404;2023-03-14T10:28:28;11.50;99.90
16767;DHT22;8501;49.926;8.404;2023-03-14T10:30:54;11.50;99.90
16767;DHT22;8501;49.926;8.404;2023-03-14T10:33:26;11.50;99.90
16767;DHT22;8501;49.926;8.404;2023-03-14T10:36:03;11.50;99.90
16767;DHT22;8501;49.926;8.404;2023-03-14T10:38:33;11.50;99.90
16767;DHT22;8501;49.926;8.404;2023-03-14T10:41:00;11.50;99.90
16767;DHT22;8501;49.926;8.404;2023-03-14T10:43:31;11.50;99.90
16767;DHT22;8501;49.926;8.404;2023-03-14T10:46:00;11.60;99.90
16767;DHT22;8501;49.926;8.404;2023-03-14T10:48:35;11.50;99.90
16767;DHT22;8501;49.926;8.404;2023-03-14T10:56:23;11.60;99.90
16767;DHT22;8501;49.926;8.404;2023-03-14T10:58:51;11.60;99.90
16767;DHT22;8501;49.926;8.404;2023-03-14T11:04:38;11.70;99.90
16767;DHT22;8501;49.926;8.404;2023-03-14T11:09:56;11.70;99.90
16767;DHT22;8501;49.926;8.404;2023-03-14T11:15:23;11.70;99.90
16767;DHT22;8501;49.926;8.404;2023-03-14T11:20:41;11.70;99.90
16767;DHT22;8501;49.926;8.404;2023-03-14T11:23:37;11.70;99.90
16767;DHT22;8501;49.926;8.404;2023-03-14T11:28:50;11.80;99.90
16767;DHT22;8501;49.926;8.404;2023-03-14T11:31:28;11.80;99.90
16767;DHT22;8501;49.926;8.404;2023-03-14T11:36:33;11.80;99.90
16767;DHT22;8501;49.926;8.404;2023-03-14T11:39:00;11.90;99.90
16767;DHT22;8501;49.926;8.404;2023-03-14T11:41:33;11.90;99.90
16767;DHT22;8501;49.926;8.404;2023-03-14T11:44:04;11.90;99.90
16767;DHT22;8501;49.926;8.404;2023-03-14T11:46:43;11.90;99.90
16767;DHT22;8501;49.926;8.404;2023-03-14T11:51:47;11.90;99.90
16767;DHT22;8501;49.926;8.404;2023-03-14T11:57:18;11.70;99.90
16767;DHT22;8501;49.926;8.404;2023-03-14T12:10:53;11.50;99.90
16767;DHT22;8501;49.926;8.404;2023-03-14T12:13:20;11.50;99.90
16767;DHT22;8501;49.926;8.404;2023-03-14T12:15:54;11.50;99.90
16767;DHT22;8501;49.926;8.404;2023-03-14T12:18:27;11.50;99.90
16767;DHT22;8501;49.926;8.404;2023-03-14T12:20:56;11.50;99.90
16767;DHT22;8501;49.926;8.404;2023-03-14T12:23:23;11.40;99.90
16767;DHT22;8501;49.926;8.404;2023-03-14T12:26:07;11.40;99.90
16767;DHT22;8501;49.926;8.404;2023-03-14T12:28:33;11.40;99.90
16767;DHT22;8501;49.926;8.404;2023-03-14T12:36:56;11.50;99.90
16767;DHT22;8501;49.926;8.404;2023-03-14T12:44:49;11.50;99.90
16767;DHT22;8501;49.926;8.404;2023-03-14T12:49:48;11.40;99.90
16767;DHT22;8501;49.926;8.404;2023-03-14T12:52:22;11.40;99.90
16767;DHT22;8501;49.926;8.404;2023-03-14T12:57:35;11.30;99.90
16767;DHT22;8501;49.926;8.404;2023-03-14T13:02:44;11.20;99.90
16767;DHT22;8501;49.926;8.404;2023-03-14T13:05:22;11.10;99.90
16767;DHT22;8501;49.926;8.404;2023-03-14T13:10:30;11.10;99.90
16767;DHT22;8501;49.926;8.404;2023-03-14T13:15:43;10.90;99.90
16767;DHT22;8501;49.926;8.404;2023-03-14T13:18:12;10.80;99.90
16767;DHT22;8501;49.926;8.404;2023-03-14T13:23:26;10.60;99.90
16767;DHT22;8501;49.926;8.404;2023-03-14T13:25:52;10.50;99.90
16767;DHT22;8501;49.926;8.404;2023-03-14T13:28:18;10.50;99.90
16767;DHT22;8501;49.926;8.404;2023-03-14T13:30:49;10.40;99.90
16767;DHT22;8501;49.926;8.404;2023-03-14T13:33:18;10.30;99.90
16767;DHT22;8501;49.926;8.404;2023-03-14T13:38:26;10.40;99.90
16767;DHT22;8501;49.926;8.404;2023-03-14T13:40:54;10.30;99.90
16767;DHT22;8501;49.926;8.404;2023-03-14T13:43:30;10.30;99.90
16767;DHT22;8501;49.926;8.404;2023-03-14T13:48:32;10.30;99.90
16767;DHT22;8501;49.926;8.404;2023-03-14T13:51:11;10.30;99.90
16767;DHT22;8501;49.926;8.404;2023-03-14T13:53:53;10.30;99.90
16767;DHT22;8501;49.926;8.404;2023-03-14T13:56:20;10.50;99.90
16767;DHT22;8501;49.926;8.404;2023-03-14T13:58:47;10.60;99.90
16767;DHT22;8501;49.926;8.404;2023-03-14T14:01:16;10.70;99.90
16767;DHT22;8501;49.926;8.404;2023-03-14T14:03:45;10.80;99.90
16767;DHT22;8501;49.926;8.404;2023-03-14T14:06:36;10.90;99.90
16767;DHT22;8501;49.926;8.404;2023-03-14T14:09:12;11.00;99.90
16767;DHT22;8501;49.926;8.404;2023-03-14T14:14:05;11.30;99.90
16767;DHT22;8501;49.926;8.404;2023-03-14T14:16:31;11.30;99.90
16767;DHT22;8501;49.926;8.404;2023-03-14T14:18:57;11.50;99.90
16767;DHT22;8501;49.926;8.404;2023-03-14T14:21:24;11.90;99.90
16767;DHT22;8501;49.926;8.404;2023-03-14T14:23:50;12.20;99.90
16767;DHT22;8501;49.926;8.404;2023-03-14T14:26:18;12.60;99.90
16767;DHT22;8501;49.926;8.404;2023-03-14T14:28:44;12.20;99.90
16767;DHT22;8501;49.926;8.404;2023-03-14T14:38:50;10.70;99.90
16767;DHT22;8501;49.926;8.404;2023-03-14T14:41:16;10.60;99.90
16767;DHT22;8501;49.926;8.404;2023-03-14T14:43:42;10.40;99.90
16767;DHT22;8501;49.926;8.404;2023-03-14T14:46:09;10.30;99.90
16767;DHT22;8501;49.926;8.404;2023-03-14T14:48:38;10.30;99.90
16767;DHT22;8501;49.926;8.404;2023-03-14T14:51:06;10.30;99.90
16767;DHT22;8501;49.926;8.404;2023-03-14T14:53:40;10.40;99.90
16767;DHT22;8501;49.926;8.404;2023-03-14T14:56:15;10.70;99.90
16767;DHT22;8501;49.926;8.404;2023-03-14T14:58:44;11.10;99.90
16767;DHT22;8501;49.926;8.404;2023-03-14T15:01:22;12.20;99.90
16767;DHT22;8501;49.926;8.404;2023-03-14T15:03:53;12.50;99.90
16767;DHT22;8501;49.926;8.404;2023-03-14T15:06:19;13.30;99.90
16767;DHT22;8501;49.926;8.404;2023-03-14T15:08:47;13.60;99.90
16767;DHT22;8501;49.926;8.404;2023-03-14T15:11:21;14.10;99.90
16767;DHT22;8501;49.926;8.404;2023-03-14T15:13:53;12.80;99.90
16767;DHT22;8501;49.926;8.404;2023-03-14T15:16:22;12.20;99.90
16767;DHT22;8501;49.926;8.404;2023-03-14T15:18:53;11.60;99.90
16767;DHT22;8501;49.926;8.404;2023-03-14T15:21:20;11.40;99.90
16767;DHT22;8501;49.926;8.404;2023-03-14T15:23:46;11.20;99.90
16767;DHT22;8501;49.926;8.404;2023-03-14T15:26:14;11.20;99.90
16767;DHT22;8501;49.926;8.404;2023-03-14T15:28:40;11.10;99.90
16767;DHT22;8501;49.926;8.404;2023-03-14T15:31:09;11.10;99.90
16767;DHT22;8501;49.926;8.404;2023-03-14T15:33:35;11.10;99.90
16767;DHT22;8501;49.926;8.404;2023-03-14T15:36:01;10.70;99.90
16767;DHT22;8501;49.926;8.404;2023-03-14T15:38:27;10.80;99.90
16767;DHT22;8501;49.926;8.404;2023-03-14T15:40:52;10.70;99.90
16767;DHT22;8501;49.926;8.404;2023-03-14T15:43:19;10.50;99.90
16767;DHT22;8501;49.926;8.404;2023-03-14T15:45:45;10.50;99.90
16767;DHT22;8501;49.926;8.404;2023-03-14T15:48:18;10.40;99.90
16767;DHT22;8501;49.926;8.404;2023-03-14T15:50:44;10.30;99.90
16767;DHT22;8501;49.926;8.404;2023-03-14T15:53:15;10.20;99.90
16767;DHT22;8501;49.926;8.404;2023-03-14T15:55:41;10.20;99.90
16767;DHT22;8501;49.926;8.404;2023-03-14T15:58:11;10.30;99.90
16767;DHT22;8501;49.926;8.404;2023-03-14T16:00:40;10.30;99.90
16767;DHT22;8501;49.926;8.404;2023-03-14T16:03:06;10.20;99.90
16767;DHT22;8501;49.926;8.404;2023-03-14T16:05:32;10.20;99.90
16767;DHT22;8501;49.926;8.404;2023-03-14T16:07:57;10.20;99.90
16767;DHT22;8501;49.926;8.404;2023-03-14T16:10:23;10.20;99.90
16767;DHT22;8501;49.926;8.404;2023-03-14T16:12:48;10.00;99.90
16767;DHT22;8501;49.926;8.404;2023-03-14T16:15:14;10.00;99.90
16767;DHT22;8501;49.926;8.404;2023-03-14T16:17:39;10.10;99.90
16767;DHT22;8501;49.926;8.404;2023-03-14T16:20:08;10.10;99.90
16767;DHT22;8501;49.926;8.404;2023-03-14T16:22:34;10.10;99.90
16767;DHT22;8501;49.926;8.404;2023-03-14T16:25:05;10.00;99.90
16767;DHT22;8501;49.926;8.404;2023-03-14T16:48:01;9.80;99.90
16767;DHT22;8501;49.926;8.404;2023-03-14T16:50:27;9.70;99.90
16767;DHT22;8501;49.926;8.404;2023-03-14T16:52:52;9.70;99.90
16767;DHT22;8501;49.926;8.404;2023-03-14T16:55:19;9.70;99.90
16767;DHT22;8501;49.926;8.404;2023-03-14T16:57:45;9.70;99.90
16767;DHT22;8501;49.926;8.404;2023-03-14T17:47:53;8.90;99.90
16767;DHT22;8501;49.926;8.404;2023-03-14T17:50:18;8.90;99.90
16767;DHT22;8501;49.926;8.404;2023-03-14T17:52:45;8.90;99.90
16767;DHT22;8501;49.926;8.404;2023-03-14T17:55:11;8.70;99.90
16767;DHT22;8501;49.926;8.404;2023-03-14T17:57:36;8.80;99.90
16767;DHT22;8501;49.926;8.404;2023-03-14T18:00:05;8.70;99.90
16767;DHT22;8501;49.926;8.404;2023-03-14T18:02:33;8.70;99.90
16767;DHT22;8501;49.926;8.404;2023-03-14T18:04:59;8.70;99.90
16767;DHT22;8501;49.926;8.404;2023-03-14T18:07:25;8.70;99.90
16767;DHT22;8501;49.926;8.404;2023-03-14T18:09:50;8.70;99.90
16767;DHT22;8501;49.926;8.404;2023-03-14T18:12:16;8.70;99.90
16767;DHT22;8501;49.926;8.404;2023-03-14T18:14:41;8.70;99.90
16767;DHT22;8501;49.926;8.404;2023-03-14T18:17:11;8.70;99.90
16767;DHT22;8501;49.926;8.404;2023-03-14T18:19:38;8.50;99.90
16767;DHT22;8501;49.926;8.404;2023-03-14T18:22:04;8.50;99.90
16767;DHT22;8501;49.926;8.404;2023-03-14T18:24:30;8.30;99.90
16767;DHT22;8501;49.926;8.404;2023-03-14T18:26:55;8.30;99.90
16767;DHT22;8501;49.926;8.404;2023-03-14T18:29:21;8.20;99.90
16767;DHT22;8501;49.926;8.404;2023-03-14T18:31:46;8.10;99.90
16767;DHT22;8501;49.926;8.404;2023-03-14T18:34:12;8.00;99.90
16767;DHT22;8501;49.926;8.404;2023-03-14T18:36:37;7.90;99.90
16767;DHT22;8501;49.926;8.404;2023-03-14T18:39:04;7.90;99.90